sensor_id;sensor_type;location;lat;lon;timestamp;temperature;humidity
3816;DHT22;1923;48.154;11.536;2023-04-25T00:01:00;9.30;99.90
3816;DHT22;1923;48.154;11.536;2023-04-25T00:03:43;9.30;99.90
3816;DHT22;1923;48.154;11.536;2023-04-25T00:06:34;9.30;99.90
3816;DHT22;1923;48.154;11.536;2023-04-25T00:09:17;9.40;99.90
3816;DHT22;1923;48.154;11.536;2023-04-25T00:12:03;9.30;99.90
3816;DHT22;1923;48.154;11.536;2023-04-25T00:14:32;9.40;99.90
3816;DHT22;1923;48.154;11.536;2023-04-25T00:17:02;9.40;99.90
3816;DHT22;1923;48.154;11.536;2023-04-25T00:19:35;9.50;99.90
3816;DHT22;1923;48.154;11.536;2023-04-25T00:22:31;9.60;99.90
3816;DHT22;1923;48.154;11.536;2023-04-25T00:25:34;9.50;99.90
3816;DHT22;1923;48.154;11.536;2023-04-25T00:31:14;9.60;99.90
3816;DHT22;1923;48.154;11.536;2023-04-25T00:34:16;9.60;99.90
3816;DHT22;1923;48.154;11.536;2023-04-25T00:37:09;9.60;99.90
3816;DHT22;1923;48.154;11.536;2023-04-25T00:39:41;9.60;99.90
3816;DHT22;1923;48.154;11.536;2023-04-25T00:42:25;9.60;99.90
3816;DHT22;1923;48.154;11.536;2023-04-25T00:45:09;9.60;99.90
3816;DHT22;1923;48.154;11.536;2023-04-25T00:47:54;9.50;99.90
3816;DHT22;1923;48.154;11.536;2023-04-25T00:50:39;9.50;99.90
3816;DHT22;1923;48.154;11.536;2023-04-25T00:53:07;9.50;99.90
3816;DHT22;1923;48.154;11.536;2023-04-25T00:55:36;9.40;99.90
3816;DHT22;1923;48.154;11.536;2023-04-25T00:58:34;9.40;99.90
3816;DHT22;1923;48.154;11.536;2023-04-25T01:01:02;9.40;99.90
3816;DHT22;1923;48.154;11.536;2023-04-25T01:04:02;9.30;99.90
3816;DHT22;1923;48.154;11.536;2023-04-25T01:06:32;9.30;99.90
3816;DHT22;1923;48.154;11.536;2023-04-25T01:09:14;9.20;99.90
3816;DHT22;1923;48.154;11.536;2023-04-25T01:11:42;9.10;99.90
3816;DHT22;1923;48.154;11.536;2023-04-25T01:14:25;9.00;99.90
3816;DHT22;1923;48.154;11.536;2023-04-25T01:16:54;9.00;99.90
3816;DHT22;1923;48.154;11.536;2023-04-25T01:19:36;9.00;99.90
3816;DHT22;1923;48.154;11.536;2023-04-25T01:22:05;8.90;99.90
3816;DHT22;1923;48.154;11.536;2023-04-25T01:24:37;9.00;99.90
3816;DHT22;1923;48.154;11.536;2023-04-25T01:27:05;8.90;99.90
3816;DHT22;1923;48.154;11.536;2023-04-25T01:29:47;8.90;99.90
3816;DHT22;1923;48.154;11.536;2023-04-25T01:32:22;8.90;99.90
3816;DHT22;1923;48.154;11.536;2023-04-25T01:34:50;8.90;99.90
3816;DHT22;1923;48.154;11.536;2023-04-25T01:37:34;8.90;99.90
3816;DHT22;1923;48.154;11.536;2023-04-25T01:40:03;8.80;99.90
3816;DHT22;1923;48.154;11.536;2023-04-25T01:42:32;8.90;99.90
3816;DHT22;1923;48.154;11.536;2023-04-25T01:45:15;8.80;99.90
3816;DHT22;1923;48.154;11.536;2023-04-25T01:51:25;8.70;99.90
3816;DHT22;1923;48.154;11.536;2023-04-25T01:53:55;8.60;99.90
3816;DHT22;1923;48.154;11.536;2023-04-25T01:56:30;8.60;99.90
3816;DHT22;1923;48.154;11.536;2023-04-25T01:58:58;8.50;99.90
3816;DHT22;1923;48.154;11.536;2023-04-25T02:01:26;8.50;99.90
3816;DHT22;1923;48.154;11.536;2023-04-25T02:03:55;8.40;99.90
3816;DHT22;1923;48.154;11.536;2023-04-25T02:06:23;8.40;99.90
3816;DHT22;1923;48.154;11.536;2023-04-25T02:08:51;8.40;99.90
3816;DHT22;1923;48.154;11.536;2023-04-25T02:11:21;8.50;99.90
3816;DHT22;1923;48.154;11.536;2023-04-25T02:13:49;8.40;99.90
3816;DHT22;1923;48.154;11.536;2023-04-25T02:16:17;8.40;99.90
3816;DHT22;1923;48.154;11.536;2023-04-25T02:18:45;8.50;99.90
3816;DHT22;1923;48.154;11.536;2023-04-25T02:21:13;8.40;99.90
3816;DHT22;1923;48.154;11.536;2023-04-25T02:23:41;8.40;99.90
3816;DHT22;1923;48.154;11.536;2023-04-25T02:26:09;8.30;99.90
3816;DHT22;1923;48.154;11.536;2023-04-25T02:28:41;8.30;99.90
3816;DHT22;1923;48.154;11.536;2023-04-25T02:31:09;8.40;99.90
3816;DHT22;1923;48.154;11.536;2023-04-25T02:33:37;8.40;99.90
3816;DHT22;1923;48.154;11.536;2023-04-25T02:36:05;8.40;99.90
3816;DHT22;1923;48.154;11.536;2023-04-25T02:38:33;8.50;99.90
3816;DHT22;1923;48.154;11.536;2023-04-25T02:41:01;8.50;99.90
3816;DHT22;1923;48.154;11.536;2023-04-25T02:43:29;8.50;99.90
3816;DHT22;1923;48.154;11.536;2023-04-25T02:45:59;8.50;99.90
3816;DHT22;1923;48.154;11.536;2023-04-25T02:48:27;8.60;99.90
3816;DHT22;1923;48.154;11.536;2023-04-25T02:50:56;8.70;99.90
3816;DHT22;1923;48.154;11.536;2023-04-25T02:53:24;8.70;99.90
3816;DHT22;1923;48.154;11.536;2023-04-25T02:55:52;8.70;99.90
3816;DHT22;1923;48.154;11.536;2023-04-25T02:58:20;8.70;99.90
3816;DHT22;1923;48.154;11.536;2023-04-25T03:00:48;8.80;99.90
3816;DHT22;1923;48.154;11.536;2023-04-25T03:03:17;8.80;99.90
3816;DHT22;1923;48.154;11.536;2023-04-25T03:05:48;8.90;99.90
3816;DHT22;1923;48.154;11.536;2023-04-25T03:08:17;8.90;99.90
3816;DHT22;1923;48.154;11.536;2023-04-25T03:10:45;8.90;99.90
3816;DHT22;1923;48.154;11.536;2023-04-25T03:13:14;8.90;99.90
3816;DHT22;1923;48.154;11.536;2023-04-25T03:15:42;8.90;99.90
3816;DHT22;1923;48.154;11.536;2023-04-25T03:18:10;9.00;99.90
3816;DHT22;1923;48.154;11.536;2023-04-25T03:20:39;9.10;99.90
3816;DHT22;1923;48.154;11.536;2023-04-25T03:23:08;9.00;99.90
3816;DHT22;1923;48.154;11.536;2023-04-25T03:25:36;9.00;99.90
3816;DHT22;1923;48.154;11.536;2023-04-25T03:28:04;9.10;99.90
3816;DHT22;1923;48.154;11.536;2023-04-25T03:30:32;9.10;99.90
3816;DHT22;1923;48.154;11.536;2023-04-25T03:33:00;9.10;99.90
3816;DHT22;1923;48.154;11.536;2023-04-25T03:35:28;9.00;99.90
3816;DHT22;1923;48.154;11.536;2023-04-25T03:37:58;9.00;99.90
3816;DHT22;1923;48.154;11.536;2023-04-25T03:40:26;8.90;99.90
3816;DHT22;1923;48.154;11.536;2023-04-25T03:42:54;8.80;99.90
3816;DHT22;1923;48.154;11.536;2023-04-25T03:45:22;8.80;99.90
3816;DHT22;1923;48.154;11.536;2023-04-25T03:47:50;8.70;99.90
3816;DHT22;1923;48.154;11.536;2023-04-25T03:50:18;8.70;99.90
3816;DHT22;1923;48.154;11.536;2023-04-25T03:52:47;8.50;99.90
3816;DHT22;1923;48.154;11.536;2023-04-25T03:55:16;8.50;99.90
3816;DHT22;1923;48.154;11.536;2023-04-25T03:57:44;8.50;99.90
3816;DHT22;1923;48.154;11.536;2023-04-25T04:00:13;8.50;99.90
3816;DHT22;1923;48.154;11.536;2023-04-25T04:02:41;8.40;99.90
3816;DHT22;1923;48.154;11.536;2023-04-25T04:05:11;8.50;99.90
3816;DHT22;1923;48.154;11.536;2023-04-25T04:07:39;8.70;99.90
3816;DHT22;1923;48.154;11.536;2023-04-25T04:10:09;8.60;99.90
3816;DHT22;1923;48.154;11.536;2023-04-25T04:12:39;8.70;99.90
3816;DHT22;1923;48.154;11.536;2023-04-25T04:15:08;8.70;99.90
3816;DHT22;1923;48.154;11.536;2023-04-25T04:17:36;8.70;99.90
3816;DHT22;1923;48.154;11.536;2023-04-25T04:20:05;8.70;99.90
3816;DHT22;1923;48.154;11.536;2023-04-25T04:22:35;8.80;99.90
3816;DHT22;1923;48.154;11.536;2023-04-25T04:25:04;8.70;99.90
3816;DHT22;1923;48.154;11.536;2023-04-25T04:27:32;8.70;99.90
3816;DHT22;1923;48.154;11.536;2023-04-25T04:30:03;8.80;99.90
3816;DHT22;1923;48.154;11.536;2023-04-25T04:32:31;8.80;99.90
3816;DHT22;1923;48.154;11.536;2023-04-25T04:35:01;8.70;99.90
3816;DHT22;1923;48.154;11.536;2023-04-25T04:37:30;8.70;99.90
3816;DHT22;1923;48.154;11.536;2023-04-25T04:39:58;8.70;99.90
3816;DHT22;1923;48.154;11.536;2023-04-25T04:42:26;8.70;99.90
3816;DHT22;1923;48.154;11.536;2023-04-25T04:44:54;8.70;99.90
3816;DHT22;1923;48.154;11.536;2023-04-25T04:47:24;8.80;99.90
3816;DHT22;1923;48.154;11.536;2023-04-25T04:49:57;8.70;99.90
3816;DHT22;1923;48.154;11.536;2023-04-25T04:52:25;8.70;99.90
3816;DHT22;1923;48.154;11.536;2023-04-25T04:54:53;8.70;99.90
3816;DHT22;1923;48.154;11.536;2023-04-25T04:57:21;8.80;99.90
3816;DHT22;1923;48.154;11.536;2023-04-25T04:59:49;8.80;99.90
3816;DHT22;1923;48.154;11.536;2023-04-25T05:02:18;8.80;99.90
3816;DHT22;1923;48.154;11.536;2023-04-25T05:04:47;8.90;99.90
3816;DHT22;1923;48.154;11.536;2023-04-25T05:07:17;8.90;99.90
3816;DHT22;1923;48.154;11.536;2023-04-25T05:09:45;9.00;99.90
3816;DHT22;1923;48.154;11.536;2023-04-25T05:12:13;8.90;99.90
3816;DHT22;1923;48.154;11.536;2023-04-25T05:14:41;8.90;99.90
3816;DHT22;1923;48.154;11.536;2023-04-25T05:17:09;9.10;99.90
3816;DHT22;1923;48.154;11.536;2023-04-25T05:19:37;9.10;99.90
3816;DHT22;1923;48.154;11.536;2023-04-25T05:22:07;9.10;99.90
3816;DHT22;1923;48.154;11.536;2023-04-25T05:24:35;9.30;99.90
3816;DHT22;1923;48.154;11.536;2023-04-25T05:27:03;9.20;99.90
3816;DHT22;1923;48.154;11.536;2023-04-25T05:29:32;9.20;99.90
3816;DHT22;1923;48.154;11.536;2023-04-25T05:32:00;9.10;99.90
3816;DHT22;1923;48.154;11.536;2023-04-25T05:34:28;9.20;99.90
3816;DHT22;1923;48.154;11.536;2023-04-25T05:36:56;9.30;99.90
3816;DHT22;1923;48.154;11.536;2023-04-25T05:39:26;9.30;99.90
3816;DHT22;1923;48.154;11.536;2023-04-25T05:41:54;9.30;99.90
3816;DHT22;1923;48.154;11.536;2023-04-25T05:44:22;9.20;99.90
3816;DHT22;1923;48.154;11.536;2023-04-25T05:46:50;9.10;99.90
3816;DHT22;1923;48.154;11.536;2023-04-25T05:49:18;9.20;99.90
3816;DHT22;1923;48.154;11.536;2023-04-25T05:51:46;9.10;99.90
3816;DHT22;1923;48.154;11.536;2023-04-25T05:54:14;9.10;99.90
3816;DHT22;1923;48.154;11.536;2023-04-25T05:56:43;9.10;99.90
3816;DHT22;1923;48.154;11.536;2023-04-25T05:59:11;9.20;99.90
3816;DHT22;1923;48.154;11.536;2023-04-25T06:01:40;9.10;99.90
3816;DHT22;1923;48.154;11.536;2023-04-25T06:04:08;9.00;99.90
3816;DHT22;1923;48.154;11.536;2023-04-25T06:06:36;8.90;99.90
3816;DHT22;1923;48.154;11.536;2023-04-25T06:09:04;8.80;99.90
3816;DHT22;1923;48.154;11.536;2023-04-25T06:11:32;8.70;99.90
3816;DHT22;1923;48.154;11.536;2023-04-25T06:14:02;8.50;99.90
3816;DHT22;1923;48.154;11.536;2023-04-25T06:16:30;8.40;99.90
3816;DHT22;1923;48.154;11.536;2023-04-25T06:18:59;8.20;99.90
3816;DHT22;1923;48.154;11.536;2023-04-25T06:21:27;8.20;99.90
3816;DHT22;1923;48.154;11.536;2023-04-25T06:23:55;8.20;99.90
3816;DHT22;1923;48.154;11.536;2023-04-25T06:26:23;8.10;99.90
3816;DHT22;1923;48.154;11.536;2023-04-25T06:28:51;8.10;99.90
3816;DHT22;1923;48.154;11.536;2023-04-25T06:31:20;8.20;99.90
3816;DHT22;1923;48.154;11.536;2023-04-25T06:33:48;8.30;99.90
3816;DHT22;1923;48.154;11.536;2023-04-25T06:36:17;8.60;99.90
3816;DHT22;1923;48.154;11.536;2023-04-25T06:38:47;8.60;99.90
3816;DHT22;1923;48.154;11.536;2023-04-25T06:41:15;8.70;99.90
3816;DHT22;1923;48.154;11.536;2023-04-25T06:43:43;8.80;99.90
3816;DHT22;1923;48.154;11.536;2023-04-25T06:46:12;9.00;99.90
3816;DHT22;1923;48.154;11.536;2023-04-25T06:48:41;9.70;99.90
3816;DHT22;1923;48.154;11.536;2023-04-25T06:51:09;10.40;99.90
3816;DHT22;1923;48.154;11.536;2023-04-25T06:53:37;10.90;99.90
3816;DHT22;1923;48.154;11.536;2023-04-25T06:56:05;12.00;99.90
3816;DHT22;1923;48.154;11.536;2023-04-25T06:58:33;13.40;99.90
3816;DHT22;1923;48.154;11.536;2023-04-25T07:01:01;14.80;99.90
3816;DHT22;1923;48.154;11.536;2023-04-25T07:03:30;15.80;99.90
3816;DHT22;1923;48.154;11.536;2023-04-25T07:06:00;16.50;99.90
3816;DHT22;1923;48.154;11.536;2023-04-25T07:08:29;16.30;99.90
3816;DHT22;1923;48.154;11.536;2023-04-25T07:10:57;16.00;99.90
3816;DHT22;1923;48.154;11.536;2023-04-25T07:13:25;15.60;99.90
3816;DHT22;1923;48.154;11.536;2023-04-25T07:15:53;15.00;99.90
3816;DHT22;1923;48.154;11.536;2023-04-25T07:18:23;14.30;99.90
3816;DHT22;1923;48.154;11.536;2023-04-25T07:20:51;14.00;99.90
3816;DHT22;1923;48.154;11.536;2023-04-25T07:23:20;13.50;99.90
3816;DHT22;1923;48.154;11.536;2023-04-25T07:25:48;13.40;99.90
3816;DHT22;1923;48.154;11.536;2023-04-25T07:28:17;13.20;99.90
3816;DHT22;1923;48.154;11.536;2023-04-25T07:30:45;13.00;99.90
3816;DHT22;1923;48.154;11.536;2023-04-25T07:33:13;13.00;99.90
3816;DHT22;1923;48.154;11.536;2023-04-25T07:35:41;13.20;99.90
3816;DHT22;1923;48.154;11.536;2023-04-25T07:38:09;13.70;99.90
3816;DHT22;1923;48.154;11.536;2023-04-25T07:40:39;14.10;99.90
3816;DHT22;1923;48.154;11.536;2023-04-25T07:43:07;14.40;99.90
3816;DHT22;1923;48.154;11.536;2023-04-25T07:45:35;14.60;99.90
3816;DHT22;1923;48.154;11.536;2023-04-25T07:48:03;15.10;99.90
3816;DHT22;1923;48.154;11.536;2023-04-25T07:50:32;15.70;99.90
3816;DHT22;1923;48.154;11.536;2023-04-25T07:53:00;16.60;99.90
3816;DHT22;1923;48.154;11.536;2023-04-25T07:55:28;17.20;99.90
3816;DHT22;1923;48.154;11.536;2023-04-25T07:57:58;18.10;99.90
3816;DHT22;1923;48.154;11.536;2023-04-25T08:00:26;19.50;99.90
3816;DHT22;1923;48.154;11.536;2023-04-25T08:02:54;20.10;99.90
3816;DHT22;1923;48.154;11.536;2023-04-25T08:05:23;20.80;99.90
3816;DHT22;1923;48.154;11.536;2023-04-25T08:07:51;21.80;99.90
3816;DHT22;1923;48.154;11.536;2023-04-25T08:10:19;22.30;99.20
3816;DHT22;1923;48.154;11.536;2023-04-25T08:12:49;22.40;97.50
3816;DHT22;1923;48.154;11.536;2023-04-25T08:15:19;22.90;97.10
3816;DHT22;1923;48.154;11.536;2023-04-25T08:17:47;22.60;97.40
3816;DHT22;1923;48.154;11.536;2023-04-25T08:20:15;22.00;96.30
3816;DHT22;1923;48.154;11.536;2023-04-25T08:22:43;21.30;96.50
3816;DHT22;1923;48.154;11.536;2023-04-25T08:25:11;20.90;97.30
3816;DHT22;1923;48.154;11.536;2023-04-25T08:27:39;20.30;96.60
3816;DHT22;1923;48.154;11.536;2023-04-25T08:30:08;19.30;97.50
3816;DHT22;1923;48.154;11.536;2023-04-25T08:32:38;18.30;98.00
3816;DHT22;1923;48.154;11.536;2023-04-25T08:35:06;17.70;98.80
3816;DHT22;1923;48.154;11.536;2023-04-25T08:37:34;17.30;99.90
3816;DHT22;1923;48.154;11.536;2023-04-25T08:40:04;17.80;99.80
3816;DHT22;1923;48.154;11.536;2023-04-25T08:42:34;18.50;99.10
3816;DHT22;1923;48.154;11.536;2023-04-25T08:45:05;19.20;98.90
3816;DHT22;1923;48.154;11.536;2023-04-25T08:47:34;19.80;97.10
3816;DHT22;1923;48.154;11.536;2023-04-25T08:50:05;21.00;96.70
3816;DHT22;1923;48.154;11.536;2023-04-25T08:52:37;22.00;93.90
3816;DHT22;1923;48.154;11.536;2023-04-25T08:55:07;22.60;93.40
3816;DHT22;1923;48.154;11.536;2023-04-25T08:57:38;22.90;93.10
3816;DHT22;1923;48.154;11.536;2023-04-25T09:00:07;22.70;90.60
3816;DHT22;1923;48.154;11.536;2023-04-25T09:02:35;22.10;89.70
3816;DHT22;1923;48.154;11.536;2023-04-25T09:05:06;22.50;89.30
3816;DHT22;1923;48.154;11.536;2023-04-25T09:07:36;22.20;87.60
3816;DHT22;1923;48.154;11.536;2023-04-25T09:10:04;20.90;88.10
3816;DHT22;1923;48.154;11.536;2023-04-25T09:12:33;19.90;87.40
3816;DHT22;1923;48.154;11.536;2023-04-25T09:15:04;19.10;89.50
3816;DHT22;1923;48.154;11.536;2023-04-25T09:17:33;18.20;90.90
3816;DHT22;1923;48.154;11.536;2023-04-25T09:20:11;17.70;91.30
3816;DHT22;1923;48.154;11.536;2023-04-25T09:22:39;17.20;92.00
3816;DHT22;1923;48.154;11.536;2023-04-25T09:25:08;16.60;91.20
3816;DHT22;1923;48.154;11.536;2023-04-25T09:27:49;16.30;92.30
3816;DHT22;1923;48.154;11.536;2023-04-25T09:30:28;16.00;93.80
3816;DHT22;1923;48.154;11.536;2023-04-25T09:32:56;15.80;93.50
3816;DHT22;1923;48.154;11.536;2023-04-25T09:35:27;15.70;93.40
3816;DHT22;1923;48.154;11.536;2023-04-25T09:37:55;15.40;93.60
3816;DHT22;1923;48.154;11.536;2023-04-25T09:40:25;15.60;94.90
3816;DHT22;1923;48.154;11.536;2023-04-25T09:42:53;16.00;94.30
3816;DHT22;1923;48.154;11.536;2023-04-25T09:45:21;16.30;94.10
3816;DHT22;1923;48.154;11.536;2023-04-25T09:47:49;16.40;93.00
3816;DHT22;1923;48.154;11.536;2023-04-25T09:50:18;16.40;92.30
3816;DHT22;1923;48.154;11.536;2023-04-25T09:53:02;16.90;93.00
3816;DHT22;1923;48.154;11.536;2023-04-25T09:55:32;18.80;92.50
3816;DHT22;1923;48.154;11.536;2023-04-25T09:58:04;20.80;88.40
3816;DHT22;1923;48.154;11.536;2023-04-25T10:00:33;22.80;86.00
3816;DHT22;1923;48.154;11.536;2023-04-25T10:03:02;23.50;84.80
3816;DHT22;1923;48.154;11.536;2023-04-25T10:05:32;23.40;78.30
3816;DHT22;1923;48.154;11.536;2023-04-25T10:08:04;22.40;76.50
3816;DHT22;1923;48.154;11.536;2023-04-25T10:10:33;21.50;79.30
3816;DHT22;1923;48.154;11.536;2023-04-25T10:13:04;21.20;83.80
3816;DHT22;1923;48.154;11.536;2023-04-25T10:15:34;21.90;83.40
3816;DHT22;1923;48.154;11.536;2023-04-25T10:18:06;23.30;81.60
3816;DHT22;1923;48.154;11.536;2023-04-25T10:20:34;24.80;77.70
3816;DHT22;1923;48.154;11.536;2023-04-25T10:23:10;26.30;71.00
3816;DHT22;1923;48.154;11.536;2023-04-25T10:25:40;26.30;66.30
3816;DHT22;1923;48.154;11.536;2023-04-25T10:28:09;24.80;66.50
3816;DHT22;1923;48.154;11.536;2023-04-25T10:30:37;23.60;68.70
3816;DHT22;1923;48.154;11.536;2023-04-25T10:33:16;22.10;68.80
3816;DHT22;1923;48.154;11.536;2023-04-25T10:35:45;21.50;72.60
3816;DHT22;1923;48.154;11.536;2023-04-25T10:38:15;20.30;78.40
3816;DHT22;1923;48.154;11.536;2023-04-25T10:41:03;18.70;79.70
3816;DHT22;1923;48.154;11.536;2023-04-25T10:43:38;17.80;84.10
3816;DHT22;1923;48.154;11.536;2023-04-25T10:46:14;17.00;84.80
3816;DHT22;1923;48.154;11.536;2023-04-25T10:48:50;16.40;87.80
3816;DHT22;1923;48.154;11.536;2023-04-25T10:51:20;16.00;87.60
3816;DHT22;1923;48.154;11.536;2023-04-25T10:53:59;15.90;89.50
3816;DHT22;1923;48.154;11.536;2023-04-25T10:56:29;15.80;89.80
3816;DHT22;1923;48.154;11.536;2023-04-25T10:59:06;15.60;90.70
3816;DHT22;1923;48.154;11.536;2023-04-25T11:01:39;15.50;91.50
3816;DHT22;1923;48.154;11.536;2023-04-25T11:04:20;15.50;92.10
3816;DHT22;1923;48.154;11.536;2023-04-25T11:07:00;15.30;91.90
3816;DHT22;1923;48.154;11.536;2023-04-25T11:09:35;14.90;91.60
3816;DHT22;1923;48.154;11.536;2023-04-25T11:12:04;14.80;92.50
3816;DHT22;1923;48.154;11.536;2023-04-25T11:14:32;14.70;92.90
3816;DHT22;1923;48.154;11.536;2023-04-25T11:17:01;14.80;94.80
3816;DHT22;1923;48.154;11.536;2023-04-25T11:19:29;14.70;96.90
3816;DHT22;1923;48.154;11.536;2023-04-25T11:21:59;14.50;96.60
3816;DHT22;1923;48.154;11.536;2023-04-25T11:24:27;14.40;96.90
3816;DHT22;1923;48.154;11.536;2023-04-25T11:26:58;14.40;97.30
3816;DHT22;1923;48.154;11.536;2023-04-25T11:29:26;14.50;96.00
3816;DHT22;1923;48.154;11.536;2023-04-25T11:31:55;14.50;96.10
3816;DHT22;1923;48.154;11.536;2023-04-25T11:34:25;14.30;97.50
3816;DHT22;1923;48.154;11.536;2023-04-25T11:36:53;14.40;97.90
3816;DHT22;1923;48.154;11.536;2023-04-25T11:39:23;14.50;97.60
3816;DHT22;1923;48.154;11.536;2023-04-25T11:41:52;14.40;96.70
3816;DHT22;1923;48.154;11.536;2023-04-25T11:44:22;14.40;98.50
3816;DHT22;1923;48.154;11.536;2023-04-25T11:46:51;14.30;97.70
3816;DHT22;1923;48.154;11.536;2023-04-25T11:49:19;14.20;99.60
3816;DHT22;1923;48.154;11.536;2023-04-25T11:51:48;14.10;99.80
3816;DHT22;1923;48.154;11.536;2023-04-25T11:54:17;13.90;99.90
3816;DHT22;1923;48.154;11.536;2023-04-25T11:56:45;13.60;99.90
3816;DHT22;1923;48.154;11.536;2023-04-25T11:59:13;13.50;99.90
3816;DHT22;1923;48.154;11.536;2023-04-25T12:01:50;13.20;99.90
3816;DHT22;1923;48.154;11.536;2023-04-25T12:04:19;13.10;99.90
3816;DHT22;1923;48.154;11.536;2023-04-25T12:06:49;13.10;99.90
3816;DHT22;1923;48.154;11.536;2023-04-25T12:09:19;12.90;99.90
3816;DHT22;1923;48.154;11.536;2023-04-25T12:11:48;12.80;99.90
3816;DHT22;1923;48.154;11.536;2023-04-25T12:14:24;12.80;99.90
3816;DHT22;1923;48.154;11.536;2023-04-25T12:16:55;12.70;99.90
3816;DHT22;1923;48.154;11.536;2023-04-25T12:19:24;12.60;99.90
3816;DHT22;1923;48.154;11.536;2023-04-25T12:21:53;12.50;99.90
3816;DHT22;1923;48.154;11.536;2023-04-25T12:24:26;12.60;99.90
3816;DHT22;1923;48.154;11.536;2023-04-25T12:26:59;12.50;99.90
3816;DHT22;1923;48.154;11.536;2023-04-25T12:29:29;12.50;99.90
3816;DHT22;1923;48.154;11.536;2023-04-25T12:32:15;12.60;99.90
3816;DHT22;1923;48.154;11.536;2023-04-25T12:34:43;12.60;99.90
3816;DHT22;1923;48.154;11.536;2023-04-25T12:37:11;12.70;99.90
3816;DHT22;1923;48.154;11.536;2023-04-25T12:39:39;12.80;99.90
3816;DHT22;1923;48.154;11.536;2023-04-25T12:42:08;12.80;99.90
3816;DHT22;1923;48.154;11.536;2023-04-25T12:44:38;12.80;99.90
3816;DHT22;1923;48.154;11.536;2023-04-25T12:47:06;12.80;99.90
3816;DHT22;1923;48.154;11.536;2023-04-25T12:49:36;12.90;99.90
3816;DHT22;1923;48.154;11.536;2023-04-25T12:52:04;13.00;99.90
3816;DHT22;1923;48.154;11.536;2023-04-25T12:54:32;13.10;99.90
3816;DHT22;1923;48.154;11.536;2023-04-25T12:57:00;13.20;99.90
3816;DHT22;1923;48.154;11.536;2023-04-25T12:59:29;13.20;99.90
3816;DHT22;1923;48.154;11.536;2023-04-25T13:01:57;13.00;99.90
3816;DHT22;1923;48.154;11.536;2023-04-25T13:04:25;12.90;99.90
3816;DHT22;1923;48.154;11.536;2023-04-25T13:06:56;12.80;99.90
3816;DHT22;1923;48.154;11.536;2023-04-25T13:09:24;12.60;99.90
3816;DHT22;1923;48.154;11.536;2023-04-25T13:11:52;12.40;99.90
3816;DHT22;1923;48.154;11.536;2023-04-25T13:14:24;12.20;99.90
3816;DHT22;1923;48.154;11.536;2023-04-25T13:16:52;11.90;99.90
3816;DHT22;1923;48.154;11.536;2023-04-25T13:19:21;11.70;99.90
3816;DHT22;1923;48.154;11.536;2023-04-25T13:21:49;11.60;99.90
3816;DHT22;1923;48.154;11.536;2023-04-25T13:24:19;11.40;99.90
3816;DHT22;1923;48.154;11.536;2023-04-25T13:26:47;11.20;99.90
3816;DHT22;1923;48.154;11.536;2023-04-25T13:29:15;10.90;99.90
3816;DHT22;1923;48.154;11.536;2023-04-25T13:31:43;10.80;99.90
3816;DHT22;1923;48.154;11.536;2023-04-25T13:34:14;10.80;99.90
3816;DHT22;1923;48.154;11.536;2023-04-25T13:36:43;10.70;99.90
3816;DHT22;1923;48.154;11.536;2023-04-25T13:39:12;10.40;99.90
3816;DHT22;1923;48.154;11.536;2023-04-25T13:41:41;10.10;99.90
3816;DHT22;1923;48.154;11.536;2023-04-25T13:44:09;10.00;99.90
3816;DHT22;1923;48.154;11.536;2023-04-25T13:46:38;9.90;99.90
3816;DHT22;1923;48.154;11.536;2023-04-25T13:49:14;9.80;99.90
3816;DHT22;1923;48.154;11.536;2023-04-25T13:51:43;9.70;99.90
3816;DHT22;1923;48.154;11.536;2023-04-25T13:54:11;9.80;99.90
3816;DHT22;1923;48.154;11.536;2023-04-25T13:56:40;10.00;99.90
3816;DHT22;1923;48.154;11.536;2023-04-25T13:59:09;10.20;99.90
3816;DHT22;1923;48.154;11.536;2023-04-25T14:01:38;10.30;99.90
3816;DHT22;1923;48.154;11.536;2023-04-25T14:04:06;10.50;99.90
3816;DHT22;1923;48.154;11.536;2023-04-25T14:06:34;10.50;99.90
3816;DHT22;1923;48.154;11.536;2023-04-25T14:09:02;10.40;99.90
3816;DHT22;1923;48.154;11.536;2023-04-25T14:11:31;10.40;99.90
3816;DHT22;1923;48.154;11.536;2023-04-25T14:14:00;10.40;99.90
3816;DHT22;1923;48.154;11.536;2023-04-25T14:16:29;10.40;99.90
3816;DHT22;1923;48.154;11.536;2023-04-25T14:18:58;10.30;99.90
3816;DHT22;1923;48.154;11.536;2023-04-25T14:21:27;10.50;99.90
3816;DHT22;1923;48.154;11.536;2023-04-25T14:23:55;10.60;99.90
3816;DHT22;1923;48.154;11.536;2023-04-25T14:26:24;10.70;99.90
3816;DHT22;1923;48.154;11.536;2023-04-25T14:28:52;10.70;99.90
3816;DHT22;1923;48.154;11.536;2023-04-25T14:31:21;10.90;99.90
3816;DHT22;1923;48.154;11.536;2023-04-25T14:33:50;11.20;99.90
3816;DHT22;1923;48.154;11.536;2023-04-25T14:36:18;11.50;99.90
3816;DHT22;1923;48.154;11.536;2023-04-25T14:38:47;11.70;99.90
3816;DHT22;1923;48.154;11.536;2023-04-25T14:41:15;11.80;99.90
3816;DHT22;1923;48.154;11.536;2023-04-25T14:43:43;11.70;99.90
3816;DHT22;1923;48.154;11.536;2023-04-25T14:46:11;11.80;99.90
3816;DHT22;1923;48.154;11.536;2023-04-25T14:48:42;12.00;99.90
3816;DHT22;1923;48.154;11.536;2023-04-25T14:51:10;12.20;99.90
3816;DHT22;1923;48.154;11.536;2023-04-25T14:53:40;12.20;99.90
3816;DHT22;1923;48.154;11.536;2023-04-25T14:56:08;12.20;99.90
3816;DHT22;1923;48.154;11.536;2023-04-25T14:58:36;12.30;99.90
3816;DHT22;1923;48.154;11.536;2023-04-25T15:01:05;12.30;99.90
3816;DHT22;1923;48.154;11.536;2023-04-25T15:03:33;12.20;99.90
3816;DHT22;1923;48.154;11.536;2023-04-25T15:06:04;12.10;99.90
3816;DHT22;1923;48.154;11.536;2023-04-25T15:08:33;12.10;99.90
3816;DHT22;1923;48.154;11.536;2023-04-25T15:11:01;12.00;99.90
3816;DHT22;1923;48.154;11.536;2023-04-25T15:13:30;12.00;99.90
3816;DHT22;1923;48.154;11.536;2023-04-25T15:15:58;12.00;99.90
3816;DHT22;1923;48.154;11.536;2023-04-25T15:18:26;11.90;99.90
3816;DHT22;1923;48.154;11.536;2023-04-25T15:20:54;11.90;99.90
3816;DHT22;1923;48.154;11.536;2023-04-25T15:23:24;11.90;99.90
3816;DHT22;1923;48.154;11.536;2023-04-25T15:25:55;11.90;99.90
3816;DHT22;1923;48.154;11.536;2023-04-25T15:28:26;11.90;99.90
3816;DHT22;1923;48.154;11.536;2023-04-25T15:30:54;11.70;99.90
3816;DHT22;1923;48.154;11.536;2023-04-25T15:33:23;11.90;99.90
3816;DHT22;1923;48.154;11.536;2023-04-25T15:35:51;11.80;99.90
3816;DHT22;1923;48.154;11.536;2023-04-25T15:38:19;11.90;99.90
3816;DHT22;1923;48.154;11.536;2023-04-25T15:40:48;11.90;99.90
3816;DHT22;1923;48.154;11.536;2023-04-25T15:43:16;11.90;99.90
3816;DHT22;1923;48.154;11.536;2023-04-25T15:45:45;12.00;99.90
3816;DHT22;1923;48.154;11.536;2023-04-25T15:48:13;12.00;99.90
3816;DHT22;1923;48.154;11.536;2023-04-25T15:50:41;12.00;99.90
3816;DHT22;1923;48.154;11.536;2023-04-25T15:53:09;11.90;99.90
3816;DHT22;1923;48.154;11.536;2023-04-25T15:55:38;11.50;99.90
3816;DHT22;1923;48.154;11.536;2023-04-25T15:58:08;11.30;99.90
3816;DHT22;1923;48.154;11.536;2023-04-25T16:00:38;11.00;99.90
3816;DHT22;1923;48.154;11.536;2023-04-25T16:03:07;10.70;99.90
3816;DHT22;1923;48.154;11.536;2023-04-25T16:05:35;10.50;99.90
3816;DHT22;1923;48.154;11.536;2023-04-25T16:08:04;10.40;99.90
3816;DHT22;1923;48.154;11.536;2023-04-25T16:10:32;10.20;99.90
3816;DHT22;1923;48.154;11.536;2023-04-25T16:13:00;10.20;99.90
3816;DHT22;1923;48.154;11.536;2023-04-25T16:15:29;10.10;99.90
3816;DHT22;1923;48.154;11.536;2023-04-25T16:18:01;10.20;99.90